createdAt,value
2018-08-22T00:00:33.898Z,1008.88
2018-08-22T00:01:33.920Z,1008.88
2018-08-22T00:02:33.904Z,1008.84
2018-08-22T00:03:33.908Z,1008.86
2018-08-22T00:04:33.910Z,1008.87
2018-08-22T00:05:33.914Z,1008.89
2018-08-22T00:06:33.915Z,1008.85
2018-08-22T00:07:33.919Z,1008.88
2018-08-22T00:08:33.923Z,1008.86
2018-08-22T00:09:33.925Z,1008.86
2018-08-22T00:10:33.929Z,1008.85
2018-08-22T00:11:33.931Z,1008.86
2018-08-22T00:12:33.935Z,1008.84
2018-08-22T00:13:33.938Z,1008.79
2018-08-22T00:14:33.939Z,1008.82
2018-08-22T00:15:33.944Z,1008.81
2018-08-22T00:16:33.946Z,1008.83
2018-08-22T00:17:33.950Z,1008.83
2018-08-22T00:18:33.951Z,1008.80
2018-08-22T00:19:33.955Z,1008.82
2018-08-22T00:20:33.959Z,1008.81
2018-08-22T00:21:33.961Z,1008.83
2018-08-22T00:22:34.010Z,1008.82
2018-08-22T00:23:33.967Z,1008.80
2018-08-22T00:24:33.970Z,1008.80
2018-08-22T00:25:33.972Z,1008.78
2018-08-22T00:26:33.974Z,1008.74
2018-08-22T00:27:33.978Z,1008.75
2018-08-22T00:28:33.981Z,1008.74
2018-08-22T00:29:33.985Z,1008.71
2018-08-22T00:30:33.987Z,1008.73
2018-08-22T00:31:33.989Z,1008.73
2018-08-22T00:32:33.992Z,1008.71
2018-08-22T00:33:33.996Z,1008.70
2018-08-22T00:34:33.997Z,1008.66
2018-08-22T00:35:34.001Z,1008.69
2018-08-22T00:36:34.004Z,1008.69
2018-08-22T00:37:34.006Z,1008.67
2018-08-22T00:38:34.009Z,1008.69
2018-08-22T00:39:34.012Z,1008.69
2018-08-22T00:40:34.015Z,1008.68
2018-08-22T00:41:34.018Z,1008.67
2018-08-22T00:42:34.021Z,1008.70
2018-08-22T00:43:34.024Z,1008.71
2018-08-22T00:44:34.029Z,1008.76
2018-08-22T00:45:34.029Z,1008.72
2018-08-22T00:46:34.031Z,1008.70
2018-08-22T00:47:34.035Z,1008.73
2018-08-22T00:48:34.036Z,1008.72
2018-08-22T00:49:34.040Z,1008.72
2018-08-22T00:50:34.042Z,1008.69
2018-08-22T00:51:34.046Z,1008.66
2018-08-22T00:52:34.052Z,1008.66
2018-08-22T00:53:34.052Z,1008.68
2018-08-22T00:54:34.055Z,1008.65
2018-08-22T00:55:34.060Z,1008.69
2018-08-22T00:56:34.062Z,1008.66
2018-08-22T00:57:34.064Z,1008.67
2018-08-22T00:58:34.070Z,1008.66
2018-08-22T00:59:34.070Z,1008.69
2018-08-22T01:00:34.073Z,1008.66
2018-08-22T01:01:34.076Z,1008.66
2018-08-22T01:02:34.078Z,1008.65
2018-08-22T01:03:34.082Z,1008.63
2018-08-22T01:04:34.087Z,1008.67
2018-08-22T01:05:34.088Z,1008.65
2018-08-22T01:06:34.090Z,1008.60
2018-08-22T01:07:34.093Z,1008.61
2018-08-22T01:08:34.097Z,1008.60
2018-08-22T01:09:34.098Z,1008.61
2018-08-22T01:10:34.101Z,1008.56
2018-08-22T01:11:34.103Z,1008.58
2018-08-22T01:12:34.109Z,1008.57
2018-08-22T01:13:34.116Z,1008.56
2018-08-22T01:14:34.113Z,1008.55
2018-08-22T01:15:34.117Z,1008.50
2018-08-22T01:16:34.119Z,1008.49
2018-08-22T01:17:34.122Z,1008.49
2018-08-22T01:18:34.124Z,1008.51
2018-08-22T01:19:34.129Z,1008.49
2018-08-22T01:20:34.130Z,1008.46
2018-08-22T01:21:34.135Z,1008.51
2018-08-22T01:22:34.137Z,1008.47
2018-08-22T01:23:34.140Z,1008.49
2018-08-22T01:24:34.144Z,1008.50
2018-08-22T01:25:34.146Z,1008.50
2018-08-22T01:26:34.150Z,1008.46
2018-08-22T01:27:34.151Z,1008.47
2018-08-22T01:28:34.156Z,1008.47
2018-08-22T01:29:34.158Z,1008.45
2018-08-22T01:30:34.161Z,1008.46
2018-08-22T01:31:34.163Z,1008.43
2018-08-22T01:32:34.167Z,1008.50
2018-08-22T01:33:34.171Z,1008.45
2018-08-22T01:34:34.172Z,1008.41
2018-08-22T01:35:34.176Z,1008.45
2018-08-22T01:36:34.181Z,1008.43
2018-08-22T01:37:34.185Z,1008.43
2018-08-22T01:38:34.186Z,1008.40
2018-08-22T01:39:34.187Z,1008.42
2018-08-22T01:40:34.192Z,1008.45
2018-08-22T01:41:34.194Z,1008.42
2018-08-22T01:42:34.198Z,1008.46
2018-08-22T01:43:34.199Z,1008.44
2018-08-22T01:44:34.203Z,1008.45
2018-08-22T01:45:34.208Z,1008.44
2018-08-22T01:46:34.210Z,1008.42
2018-08-22T01:47:34.214Z,1008.41
2018-08-22T01:48:34.215Z,1008.40
2018-08-22T01:49:34.219Z,1008.40
2018-08-22T01:50:34.225Z,1008.39
2018-08-22T01:51:34.225Z,1008.39
2018-08-22T01:52:34.228Z,1008.40
2018-08-22T01:53:34.229Z,1008.43
2018-08-22T01:54:34.234Z,1008.42
2018-08-22T01:55:34.235Z,1008.39
2018-08-22T01:56:34.239Z,1008.37
2018-08-22T01:57:34.243Z,1008.36
2018-08-22T01:58:34.247Z,1008.38
2018-08-22T01:59:34.249Z,1008.39
2018-08-22T02:00:34.252Z,1008.37
2018-08-22T02:01:34.254Z,1008.35
2018-08-22T02:02:34.257Z,1008.37
2018-08-22T02:03:34.261Z,1008.33
2018-08-22T02:04:34.263Z,1008.34
2018-08-22T02:05:34.266Z,1008.34
2018-08-22T02:06:34.268Z,1008.31
2018-08-22T02:07:34.272Z,1008.33
2018-08-22T02:08:34.276Z,1008.30
2018-08-22T02:09:34.278Z,1008.31
2018-08-22T02:10:34.281Z,1008.29
2018-08-22T02:11:34.283Z,1008.29
2018-08-22T02:12:34.290Z,1008.31
2018-08-22T02:13:34.293Z,1008.26
2018-08-22T02:14:34.292Z,1008.28
2018-08-22T02:15:34.295Z,1008.27
2018-08-22T02:16:34.298Z,1008.23
2018-08-22T02:17:34.301Z,1008.22
2018-08-22T02:18:34.302Z,1008.23
2018-08-22T02:19:34.307Z,1008.29
2018-08-22T02:20:34.311Z,1008.24
2018-08-22T02:21:34.314Z,1008.20
2018-08-22T02:22:34.315Z,1008.21
2018-08-22T02:23:34.318Z,1008.21
2018-08-22T02:24:34.322Z,1008.25
2018-08-22T02:25:34.324Z,1008.25
2018-08-22T02:26:34.327Z,1008.21
2018-08-22T02:27:34.329Z,1008.23
2018-08-22T02:28:34.333Z,1008.21
2018-08-22T02:29:34.335Z,1008.22
2018-08-22T02:30:34.338Z,1008.21
2018-08-22T02:31:34.341Z,1008.19
2018-08-22T02:32:34.344Z,1008.17
2018-08-22T02:33:34.350Z,1008.19
2018-08-22T02:34:34.348Z,1008.20
2018-08-22T02:35:34.351Z,1008.19
2018-08-22T02:36:34.354Z,1008.19
2018-08-22T02:37:34.358Z,1008.15
2018-08-22T02:38:34.361Z,1008.15
2018-08-22T02:39:34.363Z,1008.18
2018-08-22T02:40:34.367Z,1008.13
2018-08-22T02:41:34.369Z,1008.15
2018-08-22T02:42:34.372Z,1008.12
2018-08-22T02:43:34.373Z,1008.11
2018-08-22T02:44:34.378Z,1008.10
2018-08-22T02:45:34.379Z,1008.09
2018-08-22T02:46:34.383Z,1008.10
2018-08-22T02:47:34.384Z,1008.05
2018-08-22T02:48:34.388Z,1008.06
2018-08-22T02:49:34.391Z,1008.11
2018-08-22T02:50:34.392Z,1008.08
2018-08-22T02:51:34.396Z,1008.08
2018-08-22T02:52:34.397Z,1008.05
2018-08-22T02:53:34.402Z,1008.04
2018-08-22T02:54:34.404Z,1008.09
2018-08-22T02:55:34.406Z,1008.05
2018-08-22T02:56:34.408Z,1008.09
2018-08-22T02:57:34.412Z,1008.06
2018-08-22T02:58:34.413Z,1008.07
2018-08-22T02:59:34.417Z,1008.11
2018-08-22T03:00:34.420Z,1008.09
2018-08-22T03:01:34.422Z,1008.08
2018-08-22T03:02:34.425Z,1008.11
2018-08-22T03:03:34.427Z,1008.09
2018-08-22T03:04:34.430Z,1008.08
2018-08-22T03:05:34.433Z,1008.11
2018-08-22T03:06:34.434Z,1008.07
2018-08-22T03:07:34.438Z,1008.10
2018-08-22T03:08:34.441Z,1008.08
2018-08-22T03:09:34.443Z,1008.12
2018-08-22T03:10:34.444Z,1008.11
2018-08-22T03:11:34.449Z,1008.12
2018-08-22T03:12:34.450Z,1008.11
2018-08-22T03:13:34.454Z,1008.12
2018-08-22T03:14:34.455Z,1008.11
2018-08-22T03:15:34.460Z,1008.09
2018-08-22T03:16:34.461Z,1008.13
2018-08-22T03:17:34.464Z,1008.14
2018-08-22T03:18:34.466Z,1008.16
2018-08-22T03:19:34.468Z,1008.14
2018-08-22T03:20:34.470Z,1008.09
2018-08-22T03:21:34.473Z,1008.11
2018-08-22T03:22:34.476Z,1008.12
2018-08-22T03:23:34.485Z,1008.09
2018-08-22T03:24:34.481Z,1008.12
2018-08-22T03:25:34.483Z,1008.10
2018-08-22T03:26:34.485Z,1008.03
2018-08-22T03:27:34.488Z,1008.05
2018-08-22T03:28:34.491Z,1008.02
2018-08-22T03:29:34.494Z,1008.04
2018-08-22T03:30:34.497Z,1008.04
2018-08-22T03:31:34.499Z,1008.04
2018-08-22T03:32:34.502Z,1008.01
2018-08-22T03:33:34.505Z,1007.99
2018-08-22T03:34:34.505Z,1008.00
2018-08-22T03:35:34.509Z,1008.00
2018-08-22T03:36:34.511Z,1008.01
2018-08-22T03:37:34.515Z,1007.98
2018-08-22T03:38:34.515Z,1007.98
2018-08-22T03:39:34.519Z,1007.98
2018-08-22T03:40:34.521Z,1007.98
2018-08-22T03:41:34.523Z,1007.97
2018-08-22T03:42:34.529Z,1008.01
2018-08-22T03:43:34.529Z,1008.01
2018-08-22T03:44:34.532Z,1007.96
2018-08-22T03:45:34.533Z,1007.99
2018-08-22T03:46:34.538Z,1007.95
2018-08-22T03:47:34.537Z,1007.96
2018-08-22T03:48:34.541Z,1007.98
2018-08-22T03:49:34.544Z,1007.95
2018-08-22T03:50:34.546Z,1007.96
2018-08-22T03:51:34.548Z,1007.97
2018-08-22T03:52:34.551Z,1007.96
2018-08-22T03:53:34.553Z,1007.95
2018-08-22T03:54:34.555Z,1007.94
2018-08-22T03:55:34.556Z,1007.97
2018-08-22T03:56:34.559Z,1007.96
2018-08-22T03:57:34.562Z,1007.93
2018-08-22T03:58:34.564Z,1007.92
2018-08-22T03:59:34.567Z,1007.94
2018-08-22T04:00:34.576Z,1007.92
2018-08-22T04:01:34.572Z,1007.92
2018-08-22T04:02:34.573Z,1007.94
2018-08-22T04:03:34.576Z,1007.96
2018-08-22T04:04:34.578Z,1007.97
2018-08-22T04:05:34.581Z,1007.95
2018-08-22T04:06:34.581Z,1007.92
2018-08-22T04:07:34.587Z,1007.92
2018-08-22T04:08:34.589Z,1007.89
2018-08-22T04:09:34.590Z,1007.90
2018-08-22T04:10:34.591Z,1007.84
2018-08-22T04:11:34.595Z,1007.89
2018-08-22T04:12:34.597Z,1007.90
2018-08-22T04:13:34.599Z,1007.92
2018-08-22T04:14:34.600Z,1007.95
2018-08-22T04:15:34.604Z,1007.95
2018-08-22T04:16:34.605Z,1007.91
2018-08-22T04:17:34.609Z,1007.94
2018-08-22T04:18:34.609Z,1007.93
2018-08-22T04:19:34.614Z,1007.95
2018-08-22T04:20:34.615Z,1007.93
2018-08-22T04:21:34.617Z,1007.92
2018-08-22T04:22:34.623Z,1007.93
2018-08-22T04:23:34.621Z,1007.94
2018-08-22T04:24:34.624Z,1007.92
2018-08-22T04:25:34.625Z,1007.94
2018-08-22T04:26:34.629Z,1007.91
2018-08-22T04:27:34.632Z,1007.93
2018-08-22T04:28:34.634Z,1007.90
2018-08-22T04:29:34.646Z,1007.91
2018-08-22T04:30:34.637Z,1007.88
2018-08-22T04:31:34.641Z,1007.89
2018-08-22T04:32:34.642Z,1007.87
2018-08-22T04:33:34.644Z,1007.87
2018-08-22T04:34:34.646Z,1007.89
2018-08-22T04:35:34.650Z,1007.90
2018-08-22T04:36:34.654Z,1007.88
2018-08-22T04:37:34.655Z,1007.88
2018-08-22T04:38:34.655Z,1007.93
2018-08-22T04:39:34.659Z,1007.90
2018-08-22T04:40:34.661Z,1007.87
2018-08-22T04:41:34.694Z,1007.88
2018-08-22T04:42:34.665Z,1007.89
2018-08-22T04:43:34.667Z,1007.89
2018-08-22T04:44:34.669Z,1007.91
2018-08-22T04:45:34.673Z,1007.91
2018-08-22T04:46:34.674Z,1007.91
2018-08-22T04:47:34.678Z,1007.91
2018-08-22T04:48:34.686Z,1007.91
2018-08-22T04:49:34.683Z,1007.90
2018-08-22T04:50:34.684Z,1007.91
2018-08-22T04:51:34.688Z,1007.93
2018-08-22T04:52:34.690Z,1007.89
2018-08-22T04:53:34.692Z,1007.88
2018-08-22T04:54:34.694Z,1007.88
2018-08-22T04:55:34.696Z,1007.87
2018-08-22T04:56:34.698Z,1007.90
2018-08-22T04:57:34.702Z,1007.87
2018-08-22T04:58:34.703Z,1007.87
2018-08-22T04:59:34.706Z,1007.88
2018-08-22T05:00:34.707Z,1007.86
2018-08-22T05:01:34.711Z,1007.87
2018-08-22T05:02:34.714Z,1007.90
2018-08-22T05:03:34.716Z,1007.88
2018-08-22T05:04:34.719Z,1007.91
2018-08-22T05:05:34.720Z,1007.90
2018-08-22T05:06:34.722Z,1007.92
2018-08-22T05:07:34.728Z,1007.91
2018-08-22T05:08:34.728Z,1007.87
2018-08-22T05:09:34.731Z,1007.89
2018-08-22T05:10:34.731Z,1007.89
2018-08-22T05:11:34.736Z,1007.89
2018-08-22T05:12:34.737Z,1007.87
2018-08-22T05:13:34.740Z,1007.87
2018-08-22T05:14:34.743Z,1007.88
2018-08-22T05:15:34.745Z,1007.93
2018-08-22T05:16:34.748Z,1007.90
2018-08-22T05:17:34.751Z,1007.90
2018-08-22T05:18:34.751Z,1007.94
2018-08-22T05:19:34.754Z,1007.88
2018-08-22T05:20:34.758Z,1007.89
2018-08-22T05:21:34.760Z,1007.85
2018-08-22T05:22:34.763Z,1007.88
2018-08-22T05:23:34.763Z,1007.88
2018-08-22T05:24:34.794Z,1007.85
2018-08-22T05:25:34.771Z,1007.82
2018-08-22T05:26:34.772Z,1007.91
2018-08-22T05:27:34.775Z,1007.87
2018-08-22T05:28:34.778Z,1007.88
2018-08-22T05:29:34.782Z,1007.86
2018-08-22T05:30:34.783Z,1007.87
2018-08-22T05:31:34.786Z,1007.86
2018-08-22T05:32:34.787Z,1007.86
2018-08-22T05:33:34.791Z,1007.83
2018-08-22T05:34:34.792Z,1007.83
2018-08-22T05:35:34.797Z,1007.82
2018-08-22T05:36:34.799Z,1007.81
2018-08-22T05:37:34.802Z,1007.78
2018-08-22T05:38:34.803Z,1007.81
2018-08-22T05:39:34.807Z,1007.80
2018-08-22T05:40:34.872Z,1007.82
2018-08-22T05:41:34.813Z,1007.84
2018-08-22T05:42:34.815Z,1007.80
2018-08-22T05:43:34.818Z,1007.83
2018-08-22T05:44:34.821Z,1007.81
2018-08-22T05:45:34.822Z,1007.82
2018-08-22T05:46:34.827Z,1007.80
2018-08-22T05:47:34.828Z,1007.82
2018-08-22T05:48:34.831Z,1007.84
2018-08-22T05:49:34.836Z,1007.84
2018-08-22T05:50:34.836Z,1007.83
2018-08-22T05:51:34.840Z,1007.85
2018-08-22T05:52:34.845Z,1007.85
2018-08-22T05:53:34.847Z,1007.86
2018-08-22T05:54:34.849Z,1007.88
2018-08-22T05:55:34.852Z,1007.90
2018-08-22T05:56:34.855Z,1007.91
2018-08-22T05:57:34.876Z,1007.87
2018-08-22T05:58:34.861Z,1007.88
2018-08-22T05:59:34.862Z,1007.86
2018-08-22T06:00:34.867Z,1007.89
2018-08-22T06:01:34.870Z,1007.90
2018-08-22T06:02:34.872Z,1007.93
2018-08-22T06:03:34.875Z,1007.97
2018-08-22T06:04:34.879Z,1007.99
2018-08-22T06:05:34.883Z,1007.99
2018-08-22T06:06:34.885Z,1007.99
2018-08-22T06:07:34.887Z,1007.95
2018-08-22T06:08:34.891Z,1007.98
2018-08-22T06:09:34.895Z,1007.99
2018-08-22T06:10:34.897Z,1007.95
2018-08-22T06:11:34.901Z,1007.96
2018-08-22T06:12:34.904Z,1007.95
2018-08-22T06:13:34.906Z,1007.99
2018-08-22T06:14:34.911Z,1008.01
2018-08-22T06:15:34.928Z,1008.00
2018-08-22T06:16:34.917Z,1007.93
2018-08-22T06:17:34.926Z,1007.94
2018-08-22T06:18:34.923Z,1007.96
2018-08-22T06:19:34.928Z,1007.95
2018-08-22T06:20:34.933Z,1007.96
2018-08-22T06:21:34.935Z,1007.92
2018-08-22T06:22:34.939Z,1007.94
2018-08-22T06:23:34.943Z,1007.97
2018-08-22T06:24:34.947Z,1007.98
2018-08-22T06:25:34.962Z,1007.96
2018-08-22T06:26:34.953Z,1007.94
2018-08-22T06:27:34.959Z,1007.92
2018-08-22T06:28:34.962Z,1007.89
2018-08-22T06:29:34.966Z,1007.91
2018-08-22T06:30:34.969Z,1007.89
2018-08-22T06:31:34.972Z,1007.86
2018-08-22T06:32:34.978Z,1007.86
2018-08-22T06:33:34.982Z,1007.90
2018-08-22T06:34:34.985Z,1007.86
2018-08-22T06:35:34.989Z,1007.90
2018-08-22T06:36:34.993Z,1007.87
2018-08-22T06:37:34.997Z,1007.87
2018-08-22T06:38:34.999Z,1007.89
2018-08-22T06:39:35.004Z,1007.88
2018-08-22T06:40:35.010Z,1007.91
2018-08-22T06:41:35.020Z,1007.90
2018-08-22T06:42:35.017Z,1007.83
2018-08-22T06:43:35.024Z,1007.84
2018-08-22T06:44:35.023Z,1007.81
2018-08-22T06:45:35.030Z,1007.82
2018-08-22T06:46:35.032Z,1007.85
2018-08-22T06:47:35.035Z,1007.83
2018-08-22T06:48:35.041Z,1007.83
2018-08-22T06:49:35.044Z,1007.85
2018-08-22T06:50:35.050Z,1007.90
2018-08-22T06:51:35.052Z,1007.91
2018-08-22T06:52:35.056Z,1007.88
2018-08-22T06:53:35.061Z,1007.91
2018-08-22T06:54:35.063Z,1007.91
2018-08-22T06:55:35.070Z,1007.87
2018-08-22T06:56:35.072Z,1007.83
2018-08-22T06:57:35.081Z,1007.84
2018-08-22T06:58:35.080Z,1007.84
2018-08-22T06:59:35.093Z,1007.80
2018-08-22T07:00:35.090Z,1007.80
2018-08-22T07:01:35.093Z,1007.80
2018-08-22T07:02:35.098Z,1007.80
2018-08-22T07:03:35.101Z,1007.78
2018-08-22T07:04:35.105Z,1007.77
2018-08-22T07:05:35.111Z,1007.75
2018-08-22T07:06:35.114Z,1007.73
2018-08-22T07:07:35.122Z,1007.73
2018-08-22T07:08:35.124Z,1007.72
2018-08-22T07:09:35.127Z,1007.75
2018-08-22T07:10:35.132Z,1007.73
2018-08-22T07:11:35.140Z,1007.67
2018-08-22T07:12:35.140Z,1007.68
2018-08-22T07:13:35.145Z,1007.68
2018-08-22T07:14:35.149Z,1007.69
2018-08-22T07:15:35.153Z,1007.69
2018-08-22T07:16:35.159Z,1007.65
2018-08-22T07:17:35.162Z,1007.63
2018-08-22T07:18:35.166Z,1007.68
2018-08-22T07:19:35.171Z,1007.66
2018-08-22T07:20:35.175Z,1007.66
2018-08-22T07:21:35.180Z,1007.66
2018-08-22T07:22:35.185Z,1007.67
2018-08-22T07:23:35.190Z,1007.64
2018-08-22T07:24:35.194Z,1007.67
2018-08-22T07:25:35.200Z,1007.70
2018-08-22T07:26:35.203Z,1007.68
2018-08-22T07:27:35.213Z,1007.66
2018-08-22T07:28:35.213Z,1007.69
2018-08-22T07:29:35.218Z,1007.70
2018-08-22T07:30:35.221Z,1007.72
2018-08-22T07:31:35.227Z,1007.70
2018-08-22T07:32:35.234Z,1007.72
2018-08-22T07:33:35.236Z,1007.72
2018-08-22T07:34:35.241Z,1007.72
2018-08-22T07:35:35.255Z,1007.74
2018-08-22T07:36:35.250Z,1007.74
2018-08-22T07:37:35.256Z,1007.74
2018-08-22T07:38:35.260Z,1007.75
2018-08-22T07:39:35.268Z,1007.71
2018-08-22T07:40:35.270Z,1007.76
2018-08-22T07:41:35.275Z,1007.73
2018-08-22T07:42:35.278Z,1007.78
2018-08-22T07:43:35.283Z,1007.77
2018-08-22T07:44:35.289Z,1007.78
2018-08-22T07:45:35.293Z,1007.80
2018-08-22T07:46:35.298Z,1007.81
2018-08-22T07:47:35.304Z,1007.84
2018-08-22T07:48:35.311Z,1007.81
2018-08-22T07:49:35.315Z,1007.87
2018-08-22T07:50:35.320Z,1007.90
2018-08-22T07:51:35.324Z,1007.91
2018-08-22T07:52:35.354Z,1007.85
2018-08-22T07:53:35.336Z,1007.86
2018-08-22T07:54:35.388Z,1007.87
2018-08-22T07:55:35.345Z,1007.86
2018-08-22T07:56:35.350Z,1007.88
2018-08-22T07:57:35.356Z,1007.89
2018-08-22T07:58:35.359Z,1007.83
2018-08-22T07:59:35.364Z,1007.87
2018-08-22T08:00:35.372Z,1007.85
2018-08-22T08:01:35.377Z,1007.85
2018-08-22T08:02:35.380Z,1007.86
2018-08-22T08:03:35.387Z,1007.86
2018-08-22T08:04:35.392Z,1007.85
2018-08-22T08:05:35.469Z,1007.84
2018-08-22T08:06:35.402Z,1007.85
2018-08-22T08:07:35.409Z,1007.86
2018-08-22T08:08:35.436Z,1007.84
2018-08-22T08:09:35.423Z,1007.87
2018-08-22T08:10:35.425Z,1007.86
2018-08-22T08:11:35.430Z,1007.81
2018-08-22T08:12:35.435Z,1007.87
2018-08-22T08:13:35.442Z,1007.83
2018-08-22T08:14:35.448Z,1007.83
2018-08-22T08:15:35.455Z,1007.90
2018-08-22T08:16:35.458Z,1007.87
2018-08-22T08:17:35.465Z,1007.92
2018-08-22T08:18:35.469Z,1007.91
2018-08-22T08:19:35.475Z,1008.05
2018-08-22T08:20:35.481Z,1008.27
2018-08-22T08:21:35.488Z,1008.51
2018-08-22T08:22:35.494Z,1008.50
2018-08-22T08:23:35.513Z,1008.54
2018-08-22T08:24:35.508Z,1008.52
2018-08-22T08:25:35.516Z,1008.55
2018-08-22T08:26:35.523Z,1008.54
2018-08-22T08:27:35.533Z,1008.53
2018-08-22T08:28:35.541Z,1008.40
2018-08-22T08:29:35.551Z,1008.44
2018-08-22T08:30:35.600Z,1008.31
2018-08-22T08:31:35.569Z,1008.31
2018-08-22T08:32:35.580Z,1008.31
2018-08-22T08:33:35.590Z,1008.31
2018-08-22T08:34:35.600Z,1008.31
2018-08-22T08:35:35.662Z,1008.16
2018-08-22T08:36:35.623Z,1008.27
2018-08-22T08:37:35.636Z,1008.30
2018-08-22T08:38:35.668Z,1008.25
2018-08-22T08:39:35.659Z,1008.22
2018-08-22T08:40:35.671Z,1008.24
2018-08-22T08:41:35.740Z,1008.20
2018-08-22T08:42:35.697Z,1008.29
2018-08-22T08:43:35.711Z,1008.22
2018-08-22T08:44:35.727Z,1008.23
2018-08-22T08:45:35.739Z,1008.20
2018-08-22T08:46:35.751Z,1008.24
2018-08-22T08:47:35.767Z,1008.24
2018-08-22T08:48:35.786Z,1008.26
2018-08-22T08:49:36.021Z,1008.22
2018-08-22T08:50:35.809Z,1008.25
2018-08-22T08:51:35.825Z,1008.26
2018-08-22T08:52:35.840Z,1008.25
2018-08-22T08:53:35.855Z,1008.29
2018-08-22T08:54:35.869Z,1008.29
2018-08-22T08:55:35.885Z,1008.27
2018-08-22T08:56:35.901Z,1008.24
2018-08-22T08:57:35.916Z,1008.27
2018-08-22T08:58:35.931Z,1008.25
2018-08-22T08:59:35.947Z,1008.28
2018-08-22T09:00:35.963Z,1008.22
2018-08-22T09:01:35.979Z,1008.23
2018-08-22T09:02:36.024Z,1008.21
2018-08-22T09:03:36.010Z,1008.22
2018-08-22T09:04:36.028Z,1008.22
2018-08-22T09:05:36.043Z,1008.22
2018-08-22T09:06:36.143Z,1008.25
2018-08-22T09:07:36.076Z,1008.22
2018-08-22T09:08:36.092Z,1008.18
2018-08-22T09:09:36.107Z,1008.20
2018-08-22T09:10:36.174Z,1008.14
2018-08-22T09:11:36.140Z,1008.17
2018-08-22T09:12:36.156Z,1008.16
2018-08-22T09:13:36.173Z,1008.06
2018-08-22T09:14:36.188Z,1008.00
2018-08-22T09:15:36.277Z,1008.23
2018-08-22T09:16:36.223Z,1008.18
2018-08-22T09:17:36.249Z,1008.11
2018-08-22T09:18:36.252Z,1008.21
2018-08-22T09:19:36.268Z,1008.06
2018-08-22T09:20:36.284Z,1008.13
2018-08-22T09:21:36.383Z,1008.04
2018-08-22T09:22:36.315Z,1008.18
2018-08-22T09:23:36.332Z,1008.02
2018-08-22T09:24:36.349Z,1007.93
2018-08-22T09:25:36.365Z,1007.93
2018-08-22T09:26:36.380Z,1007.87
2018-08-22T09:27:36.396Z,1007.98
2018-08-22T09:28:36.415Z,1007.86
2018-08-22T09:29:36.485Z,1007.79
2018-08-22T09:30:36.442Z,1007.78
2018-08-22T09:31:36.459Z,1007.86
2018-08-22T09:32:36.474Z,1007.85
2018-08-22T09:33:36.513Z,1008.03
2018-08-22T09:34:36.507Z,1008.08
2018-08-22T09:35:36.580Z,1008.16
2018-08-22T09:36:36.581Z,1008.19
2018-08-22T09:37:36.553Z,1008.12
2018-08-22T09:38:36.564Z,1008.09
2018-08-22T09:39:36.614Z,1007.81
2018-08-22T09:40:36.594Z,1008.10
2018-08-22T09:41:36.611Z,1007.96
2018-08-22T09:42:36.625Z,1008.11
2018-08-22T09:43:36.640Z,1008.00
2018-08-22T09:44:36.655Z,1007.82
2018-08-22T09:45:36.670Z,1007.90
2018-08-22T09:46:36.705Z,1008.12
2018-08-22T09:47:36.730Z,1008.02
2018-08-22T09:48:36.714Z,1008.10
2018-08-22T09:49:36.730Z,1007.99
2018-08-22T09:50:36.745Z,1007.97
2018-08-22T09:51:36.760Z,1007.90
2018-08-22T09:52:36.776Z,1007.93
2018-08-22T09:53:36.790Z,1008.04
2018-08-22T09:54:36.890Z,1008.05
2018-08-22T09:55:36.821Z,1008.00
2018-08-22T09:56:36.835Z,1007.99
2018-08-22T09:57:36.850Z,1008.05
2018-08-22T09:58:36.871Z,1007.94
2018-08-22T09:59:36.880Z,1007.97
2018-08-22T10:00:36.966Z,1007.93
2018-08-22T10:01:36.911Z,1008.01
2018-08-22T10:02:36.926Z,1007.87
2018-08-22T10:03:36.943Z,1007.88
2018-08-22T10:04:36.958Z,1007.92
2018-08-22T10:05:36.972Z,1007.88
2018-08-22T10:06:37.108Z,1007.86
2018-08-22T10:07:37.003Z,1007.91
2018-08-22T10:08:37.019Z,1007.92
2018-08-22T10:09:37.034Z,1007.89
2018-08-22T10:10:37.048Z,1007.91
2018-08-22T10:11:37.064Z,1007.93
2018-08-22T10:12:37.078Z,1007.91
2018-08-22T10:13:37.095Z,1007.93
2018-08-22T10:14:37.107Z,1007.84
2018-08-22T10:15:37.123Z,1007.75
2018-08-22T10:16:37.138Z,1007.80
2018-08-22T10:17:37.155Z,1007.82
2018-08-22T10:18:37.168Z,1007.76
2018-08-22T10:19:37.205Z,1007.85
2018-08-22T10:20:37.199Z,1007.75
2018-08-22T10:21:37.216Z,1007.73
2018-08-22T10:22:37.230Z,1007.71
2018-08-22T10:23:37.244Z,1007.64
2018-08-22T10:24:37.261Z,1007.71
2018-08-22T10:25:37.285Z,1007.65
2018-08-22T10:26:37.385Z,1007.65
2018-08-22T10:27:37.306Z,1007.57
2018-08-22T10:28:37.326Z,1007.53
2018-08-22T10:29:37.338Z,1007.44
2018-08-22T10:30:37.351Z,1007.45
2018-08-22T10:31:37.366Z,1007.52
2018-08-22T10:32:37.438Z,1007.56
2018-08-22T10:33:37.397Z,1007.43
2018-08-22T10:34:37.418Z,1007.37
2018-08-22T10:35:37.428Z,1007.26
2018-08-22T10:36:37.442Z,1007.31
2018-08-22T10:37:37.458Z,1007.29
2018-08-22T10:38:37.499Z,1007.28
2018-08-22T10:39:37.541Z,1007.41
2018-08-22T10:40:37.503Z,1007.43
2018-08-22T10:41:37.545Z,1007.35
2018-08-22T10:42:37.532Z,1007.23
2018-08-22T10:43:37.547Z,1007.16
2018-08-22T10:44:37.562Z,1007.24
2018-08-22T10:45:37.584Z,1007.29
2018-08-22T10:46:37.590Z,1007.24
2018-08-22T10:47:37.604Z,1007.26
2018-08-22T10:48:37.619Z,1007.35
2018-08-22T10:49:37.685Z,1007.30
2018-08-22T10:50:37.677Z,1007.21
2018-08-22T10:51:37.662Z,1007.16
2018-08-22T10:52:37.676Z,1007.14
2018-08-22T10:53:37.689Z,1007.09
2018-08-22T10:54:37.703Z,1007.09
2018-08-22T10:55:37.717Z,1007.07
2018-08-22T10:56:37.731Z,1007.14
2018-08-22T10:57:37.745Z,1007.08
2018-08-22T10:58:37.760Z,1007.08
2018-08-22T10:59:37.773Z,1007.10
2018-08-22T11:00:37.787Z,1007.11
2018-08-22T11:01:37.804Z,1007.09
2018-08-22T11:02:37.816Z,1007.15
2018-08-22T11:03:37.825Z,1007.13
2018-08-22T11:04:37.840Z,1007.18
2018-08-22T11:05:37.855Z,1007.15
2018-08-22T11:06:37.870Z,1007.19
2018-08-22T11:07:37.880Z,1007.13
2018-08-22T11:08:37.892Z,1007.11
2018-08-22T11:09:37.906Z,1007.19
2018-08-22T11:10:37.919Z,1007.13
2018-08-22T11:11:37.934Z,1007.11
2018-08-22T11:12:37.947Z,1007.12
2018-08-22T11:13:37.962Z,1007.10
2018-08-22T11:14:37.972Z,1007.06
2018-08-22T11:15:38.036Z,1007.09
2018-08-22T11:16:38.000Z,1007.13
2018-08-22T11:17:38.012Z,1007.09
2018-08-22T11:18:38.025Z,1007.08
2018-08-22T11:19:38.037Z,1007.05
2018-08-22T11:20:38.050Z,1007.05
2018-08-22T11:21:38.062Z,1007.02
2018-08-22T11:22:38.076Z,1007.01
2018-08-22T11:23:38.089Z,1007.03
2018-08-22T11:24:38.100Z,1006.97
2018-08-22T11:25:38.114Z,1006.95
2018-08-22T11:26:38.125Z,1006.91
2018-08-22T11:27:38.139Z,1006.89
2018-08-22T11:28:38.150Z,1006.88
2018-08-22T11:29:38.163Z,1006.85
2018-08-22T11:30:38.175Z,1006.82
2018-08-22T11:31:38.187Z,1006.77
2018-08-22T11:32:38.200Z,1006.82
2018-08-22T11:33:38.213Z,1006.85
2018-08-22T11:34:38.225Z,1006.81
2018-08-22T11:35:38.236Z,1006.81
2018-08-22T11:36:38.248Z,1006.75
2018-08-22T11:37:38.261Z,1006.76
2018-08-22T11:38:38.272Z,1006.80
2018-08-22T11:39:38.286Z,1006.84
2018-08-22T11:40:38.298Z,1006.79
2018-08-22T11:41:38.313Z,1006.81
2018-08-22T11:42:38.320Z,1006.79
2018-08-22T11:43:38.333Z,1006.79
2018-08-22T11:44:38.346Z,1006.78
2018-08-22T11:45:38.356Z,1006.75
2018-08-22T11:46:38.371Z,1006.75
2018-08-22T11:47:38.379Z,1006.72
2018-08-22T11:48:38.391Z,1006.69
2018-08-22T11:49:38.404Z,1006.69
2018-08-22T11:50:38.414Z,1006.70
2018-08-22T11:51:38.428Z,1006.69
2018-08-22T11:52:38.439Z,1006.67
2018-08-22T11:53:38.451Z,1006.71
2018-08-22T11:54:38.462Z,1006.64
2018-08-22T11:55:38.473Z,1006.68
2018-08-22T11:56:38.486Z,1006.67
2018-08-22T11:57:38.498Z,1006.65
2018-08-22T11:58:38.510Z,1006.62
2018-08-22T11:59:38.529Z,1006.58
2018-08-22T12:00:38.532Z,1006.54
2018-08-22T12:01:38.544Z,1006.51
2018-08-22T12:02:38.554Z,1006.50
2018-08-22T12:03:38.566Z,1006.53
2018-08-22T12:04:38.579Z,1006.55
2018-08-22T12:05:38.595Z,1006.60